Time;durP1;ratioP1;P1;durP2;ratioP2;P2;SDS_P1;SDS_P2;PMS_P1;PMS_P2;Temp;Humidity;BMP_temperature;BMP_pressure;BME280_temperature;BME280_humidity;BME280_pressure;Samples;Min_cycle;Max_cycle;Signal;HPM_P1;HPM_P2
2021/01/20 00:00:09;;;;;;;0.20;0.10;;;;;;;2.08;100.00;99676.84;5063581;28;20474;-53
2021/01/20 00:02:36;;;;;;;0.20;0.10;;;;;;;1.97;100.00;99677.78;5061208;28;20539;-56
2021/01/20 00:05:03;;;;;;;0.20;0.10;;;;;;;1.81;100.00;99666.47;5065819;28;20524;-54
2021/01/20 00:07:29;;;;;;;0.20;0.10;;;;;;;1.96;100.00;99674.28;5068533;28;20463;-55
2021/01/20 00:09:56;;;;;;;0.20;0.10;;;;;;;1.92;100.00;99669.03;5064194;28;20930;-55
2021/01/20 00:12:22;;;;;;;0.20;0.10;;;;;;;1.81;100.00;99665.59;5061103;28;20447;-55
2021/01/20 00:14:49;;;;;;;0.20;0.10;;;;;;;1.76;100.00;99662.97;5065460;28;20453;-54
2021/01/20 00:17:16;;;;;;;0.20;0.10;;;;;;;1.84;100.00;99663.84;5067760;28;20508;-55
2021/01/20 00:19:42;;;;;;;0.20;0.10;;;;;;;1.76;100.00;99653.38;5064655;28;20594;-55
2021/01/20 00:22:11;;;;;;;0.20;0.10;;;;;;;1.63;100.00;99659.53;5069792;28;20486;-55
2021/01/20 00:24:38;;;;;;;0.20;0.10;;;;;;;1.60;100.00;99648.19;5066386;28;20446;-55
2021/01/20 00:27:05;;;;;;;0.20;0.10;;;;;;;1.66;100.00;99645.56;5045930;28;20501;-55
2021/01/20 00:29:32;;;;;;;0.20;0.10;;;;;;;1.71;100.00;99641.19;5066561;28;20454;-55
2021/01/20 00:31:59;;;;;;;0.20;0.10;;;;;;;1.64;100.00;99648.16;5074844;28;20470;-55
2021/01/20 00:34:26;;;;;;;0.20;0.10;;;;;;;1.47;100.00;99637.75;5063541;28;20483;-55
2021/01/20 00:36:52;;;;;;;0.20;0.10;;;;;;;1.45;100.00;99641.25;5063839;28;20458;-55
2021/01/20 00:39:19;;;;;;;0.20;0.10;;;;;;;1.38;100.00;99642.16;5063405;28;20524;-55
2021/01/20 00:41:47;;;;;;;0.20;0.10;;;;;;;1.30;100.00;99638.66;5067115;28;20527;-55
2021/01/20 00:44:13;;;;;;;0.20;0.10;;;;;;;1.41;100.00;99636.91;5065236;28;20450;-55
2021/01/20 00:46:40;;;;;;;0.20;0.10;;;;;;;1.37;100.00;99632.53;5060677;28;20496;-55
2021/01/20 00:49:06;;;;;;;0.20;0.10;;;;;;;1.39;100.00;99625.56;5062315;28;20446;-55
2021/01/20 00:51:33;;;;;;;0.20;0.10;;;;;;;1.54;100.00;99636.00;5066797;28;20466;-55
2021/01/20 00:53:59;;;;;;;0.20;0.10;;;;;;;1.44;100.00;99632.53;5065575;28;20445;-55
2021/01/20 00:56:25;;;;;;;0.20;0.10;;;;;;;1.58;100.00;99626.38;5059618;28;20445;-55
2021/01/20 00:58:51;;;;;;;0.20;0.10;;;;;;;1.40;100.00;99622.94;5061960;28;20450;-54
2021/01/20 01:01:17;;;;;;;0.20;0.10;;;;;;;1.43;100.00;99608.97;5066993;28;20474;-55
2021/01/20 01:03:43;;;;;;;0.20;0.10;;;;;;;1.61;100.00;99618.50;5065805;28;20858;-55
2021/01/20 01:06:10;;;;;;;0.20;0.20;;;;;;;1.46;100.00;99615.06;5059782;28;20908;-55
2021/01/20 01:08:36;;;;;;;0.20;0.10;;;;;;;1.39;100.00;99610.72;5061377;28;20453;-55
2021/01/20 01:11:05;;;;;;;0.20;0.10;;;;;;;1.42;100.00;99608.09;5066784;28;20471;-55
2021/01/20 01:13:31;;;;;;;0.20;0.10;;;;;;;1.43;100.00;99601.13;5065689;28;20446;-55
2021/01/20 01:15:58;;;;;;;0.20;0.10;;;;;;;1.40;100.00;99602.00;5059717;28;20518;-55
2021/01/20 01:18:25;;;;;;;0.20;0.10;;;;;;;1.36;100.00;99596.75;5061157;28;20455;-55
2021/01/20 01:20:51;;;;;;;0.20;0.10;;;;;;;1.51;100.00;99596.75;5069777;28;21000;-55
2021/01/20 01:23:17;;;;;;;0.20;0.10;;;;;;;1.54;100.00;99601.09;5060860;28;20494;-55
2021/01/20 01:25:43;;;;;;;0.20;0.10;;;;;;;1.69;100.00;99594.03;5066709;28;20451;-49
2021/01/20 01:28:14;;;;;;;0.20;0.10;;;;;;;1.73;100.00;99593.13;5065472;28;20800;-49
2021/01/20 01:30:40;;;;;;;0.20;0.10;;;;;;;1.65;100.00;99594.06;5059022;28;20466;-49
2021/01/20 01:33:08;;;;;;;0.20;0.10;;;;;;;1.53;100.00;99578.41;5072796;28;20504;-50
2021/01/20 01:35:35;;;;;;;0.20;0.10;;;;;;;1.65;100.00;99581.84;5058842;28;20950;-49
2021/01/20 01:38:01;;;;;;;0.20;0.10;;;;;;;1.64;100.00;99580.06;5065913;28;20943;-49
2021/01/20 01:40:28;;;;;;;0.20;0.10;;;;;;;1.58;100.00;99581.84;5058393;28;20466;-49
2021/01/20 01:42:54;;;;;;;0.20;0.10;;;;;;;1.53;100.00;99586.25;5060202;28;20532;-48
2021/01/20 01:45:20;;;;;;;0.20;0.10;;;;;;;1.53;100.00;99574.03;5059844;28;20454;-49
2021/01/20 01:47:46;;;;;;;0.20;0.10;;;;;;;1.56;100.00;99579.25;5059449;28;20450;-49
2021/01/20 01:50:13;;;;;;;0.20;0.10;;;;;;;1.46;100.00;99573.16;5065876;28;20971;-49
2021/01/20 01:52:41;;;;;;;0.20;0.10;;;;;;;1.48;100.00;99562.69;5057556;28;20823;-52
2021/01/20 01:55:08;;;;;;;0.20;0.10;;;;;;;1.70;100.00;99553.00;5065786;28;20955;-49
2021/01/20 01:57:40;;;;;;;0.20;0.10;;;;;;;1.45;100.00;99552.22;5066066;28;20544;-50
2021/01/20 02:00:08;;;;;;;0.20;0.10;;;;;;;1.42;100.00;99552.25;5060272;28;20477;-49
2021/01/20 02:02:36;;;;;;;0.80;0.80;;;;;;;1.44;100.00;99550.50;5059044;28;20490;-49
2021/01/20 02:05:04;;;;;;;0.20;0.10;;;;;;;1.30;100.00;99553.16;5064170;28;20534;-50
2021/01/20 02:07:30;;;;;;;0.20;0.13;;;;;;;1.40;100.00;99549.63;5065448;28;21310;-49
2021/01/20 02:10:00;;;;;;;0.20;0.10;;;;;;;1.54;100.00;99552.19;5061127;28;20456;-50
2021/01/20 02:12:44;;;;;;;0.20;0.10;;;;;;;1.23;100.00;99556.66;5058685;28;20943;-49
2021/01/20 02:15:18;;;;;;;0.20;0.10;;;;;;;1.31;100.00;99552.28;5060704;28;20442;-50
2021/01/20 02:18:03;;;;;;;0.20;0.10;;;;;;;1.08;100.00;99548.84;5065667;28;20492;-50
2021/01/20 02:20:29;;;;;;;0.20;0.10;;;;;;;1.16;100.00;99550.59;5066321;28;20548;-50
2021/01/20 02:23:02;;;;;;;0.20;0.10;;;;;;;0.97;100.00;99546.28;5063960;28;20497;-50
2021/01/20 02:25:32;;;;;;;0.20;0.10;;;;;;;1.00;100.00;99548.00;5065580;28;20850;-50
2021/01/20 02:28:06;;;;;;;0.20;0.20;;;;;;;1.00;100.00;99540.16;5061904;28;20951;-50
2021/01/20 02:30:35;;;;;;;0.20;0.20;;;;;;;0.88;100.00;99541.06;5059946;28;20461;-50
2021/01/20 02:33:04;;;;;;;0.20;0.10;;;;;;;0.91;100.00;99533.19;5072462;28;20491;-50
2021/01/20 02:35:32;;;;;;;0.20;0.10;;;;;;;0.73;100.00;99538.47;5058449;28;20460;-49
2021/01/20 02:38:03;;;;;;;0.20;0.10;;;;;;;0.77;100.00;99538.44;5058503;28;20527;-50
2021/01/20 02:40:30;;;;;;;0.20;0.10;;;;;;;0.58;100.00;99531.50;5064160;28;20470;-50
2021/01/20 02:42:56;;;;;;;0.20;0.10;;;;;;;0.70;100.00;99536.72;5068981;28;20511;-49
2021/01/20 02:45:22;;;;;;;0.20;0.10;;;;;;;0.80;100.00;99530.59;5063658;28;20446;-50
2021/01/20 02:47:49;;;;;;;0.20;0.10;;;;;;;0.79;100.00;99533.22;5062638;28;20508;-50
2021/01/20 02:50:16;;;;;;;0.20;0.10;;;;;;;0.78;100.00;99521.88;5068398;28;20467;-50
2021/01/20 02:53:03;;;;;;;0.20;0.10;;;;;;;0.89;100.00;99521.88;5061343;28;20458;-50
2021/01/20 02:55:31;;;;;;;0.20;0.10;;;;;;;0.53;100.00;99523.66;5065322;28;20817;-50
2021/01/20 02:58:08;;;;;;;0.20;0.10;;;;;;;0.60;100.00;99527.16;5069327;28;20867;-50
2021/01/20 03:00:38;;;;;;;0.20;0.10;;;;;;;0.80;100.00;99517.50;5068208;28;20465;-50
2021/01/20 03:03:07;;;;;;;0.20;0.10;;;;;;;1.08;100.00;99522.69;5062359;28;20547;-52
2021/01/20 03:05:35;;;;;;;0.20;0.10;;;;;;;0.75;100.00;99516.66;5062235;28;21102;-53
2021/01/20 03:08:02;;;;;;;0.20;0.10;;;;;;;0.77;100.00;99522.75;5068952;28;20461;-50
2021/01/20 03:10:28;;;;;;;0.20;0.10;;;;;;;1.11;100.00;99526.19;5068894;28;20466;-50
2021/01/20 03:12:55;;;;;;;0.20;0.10;;;;;;;0.83;100.00;99533.22;5062460;28;21015;-49
2021/01/20 03:15:22;;;;;;;0.20;0.10;;;;;;;0.89;100.00;99517.50;5062102;28;20461;-53
2021/01/20 03:17:49;;;;;;;0.20;0.10;;;;;;;0.85;100.00;99523.63;5049428;28;20523;-51
2021/01/20 03:20:15;;;;;;;0.20;0.10;;;;;;;0.80;100.00;99512.28;5061779;28;20470;-50
2021/01/20 03:22:42;;;;;;;0.20;0.10;;;;;;;1.10;100.00;99518.34;5068371;28;20555;-50
2021/01/20 03:25:10;;;;;;;0.20;0.10;;;;;;;1.01;100.00;99515.75;5068409;28;20938;-50
2021/01/20 03:27:37;;;;;;;0.20;0.10;;;;;;;1.02;100.00;99520.09;5062796;28;20829;-50
2021/01/20 03:30:05;;;;;;;0.20;0.10;;;;;;;1.03;100.00;99512.25;5062456;28;20463;-50
2021/01/20 03:32:31;;;;;;;0.20;0.10;;;;;;;1.01;100.00;99505.28;5075546;28;20445;-49
2021/01/20 03:34:57;;;;;;;0.20;0.10;;;;;;;0.98;100.00;99516.63;5061493;28;20453;-50
2021/01/20 03:37:24;;;;;;;0.20;0.10;;;;;;;0.91;100.00;99503.56;5067795;28;20457;-49
2021/01/20 03:39:50;;;;;;;0.20;0.10;;;;;;;0.97;100.00;99501.81;5061734;28;20454;-50
2021/01/20 03:42:16;;;;;;;0.20;0.10;;;;;;;0.84;100.00;99508.81;5066568;28;20836;-50
2021/01/20 03:44:42;;;;;;;0.20;0.10;;;;;;;0.75;100.00;99500.97;5068507;28;20454;-49
2021/01/20 03:47:09;;;;;;;0.20;0.10;;;;;;;0.96;100.00;99507.00;5063093;28;20449;-50
2021/01/20 03:49:35;;;;;;;0.20;0.10;;;;;;;0.93;100.00;99497.44;5061433;28;20474;-49
2021/01/20 03:52:01;;;;;;;0.20;0.10;;;;;;;0.94;100.00;99495.69;5064266;28;20487;-50
2021/01/20 03:54:27;;;;;;;0.20;0.10;;;;;;;0.83;100.00;99494.00;5060914;28;20458;-50
2021/01/20 03:56:54;;;;;;;0.20;0.10;;;;;;;0.87;100.00;99502.69;5066240;28;20457;-52
2021/01/20 03:59:20;;;;;;;0.20;0.10;;;;;;;0.85;100.00;99505.31;5068141;28;20446;-49
2021/01/20 04:01:46;;;;;;;0.20;0.13;;;;;;;0.81;100.00;99500.06;5063011;28;20462;-50
2021/01/20 04:04:12;;;;;;;0.20;0.10;;;;;;;0.35;100.00;99480.97;5061193;28;20821;-49
2021/01/20 04:06:38;;;;;;;0.20;0.10;;;;;;;1.07;100.00;99493.03;5066280;28;20500;-50
2021/01/20 04:09:07;;;;;;;0.20;0.10;;;;;;;0.86;100.00;99480.91;5067870;28;20457;-49
2021/01/20 04:11:34;;;;;;;0.20;0.10;;;;;;;1.34;100.00;99483.31;5063891;28;20478;-49
2021/01/20 04:14:00;;;;;;;0.20;0.10;;;;;;;1.68;100.00;99479.66;5061123;28;20955;-50
2021/01/20 04:16:27;;;;;;;0.20;0.10;;;;;;;1.64;100.00;99474.44;5065658;28;20496;-49
2021/01/20 04:18:53;;;;;;;0.20;0.10;;;;;;;1.57;100.00;99478.00;5067498;28;20461;-50
2021/01/20 04:21:20;;;;;;;0.20;0.10;;;;;;;1.59;100.00;99473.59;5062067;28;20481;-50
2021/01/20 04:23:46;;;;;;;0.20;0.10;;;;;;;1.61;100.00;99466.59;5067673;28;20493;-50
2021/01/20 04:26:12;;;;;;;0.20;0.10;;;;;;;1.64;100.00;99464.81;5063991;28;20449;-50
2021/01/20 04:28:39;;;;;;;0.20;0.10;;;;;;;1.60;100.00;99470.09;5060647;28;20460;-49
2021/01/20 04:31:05;;;;;;;1.17;1.17;;;;;;;1.65;100.00;99468.34;5064518;28;20470;-50
2021/01/20 04:33:32;;;;;;;0.20;0.10;;;;;;;1.72;100.00;99468.28;5067659;28;20446;-49
2021/01/20 04:35:58;;;;;;;0.20;0.10;;;;;;;1.90;100.00;99463.78;5060229;28;20454;-49
2021/01/20 04:38:25;;;;;;;0.20;0.10;;;;;;;1.71;100.00;99471.78;5067431;28;20454;-50
2021/01/20 04:41:01;;;;;;;0.20;0.10;;;;;;;1.80;100.00;99456.91;5064153;28;20466;-49
2021/01/20 04:43:27;;;;;;;0.20;0.10;;;;;;;1.90;99.67;99458.56;5060688;28;20831;-49
2021/01/20 04:45:53;;;;;;;0.20;0.10;;;;;;;2.17;99.18;99460.09;5062756;28;20447;-49
2021/01/20 04:48:20;;;;;;;0.20;0.10;;;;;;;2.28;98.22;99460.88;5067568;28;20454;-50
2021/01/20 04:50:47;;;;;;;0.20;0.10;;;;;;;2.33;97.21;99452.09;5065169;28;20523;-50
2021/01/20 04:53:15;;;;;;;0.20;0.10;;;;;;;2.34;96.96;99455.59;5060620;28;20449;-49
2021/01/20 04:55:43;;;;;;;0.20;0.10;;;;;;;2.57;96.36;99458.84;5062178;28;20447;-50
2021/01/20 04:58:11;;;;;;;0.20;0.10;;;;;;;2.57;96.41;99460.59;5066862;28;21029;-50
2021/01/20 05:00:41;;;;;;;0.20;0.10;;;;;;;2.38;98.45;99450.31;5065698;28;20466;-50
2021/01/20 05:03:08;;;;;;;0.20;0.10;;;;;;;2.21;99.61;99453.97;5041005;28;20577;-50
2021/01/20 05:05:36;;;;;;;0.20;0.10;;;;;;;2.11;99.09;99453.16;5066325;28;20450;-50
2021/01/20 05:08:04;;;;;;;0.20;0.10;;;;;;;2.12;99.90;99452.28;5059945;28;20504;-49
2021/01/20 05:10:30;;;;;;;0.20;0.10;;;;;;;2.08;100.00;99450.56;5060538;28;21044;-50
2021/01/20 05:12:56;;;;;;;0.20;0.20;;;;;;;1.93;100.00;99442.84;5066485;28;20500;-50
2021/01/20 05:15:35;;;;;;;0.20;0.10;;;;;;;1.89;100.00;99449.81;5066284;28;20951;-50
2021/01/20 05:18:04;;;;;;;0.20;0.10;;;;;;;1.89;100.00;99448.97;5065680;28;20846;-50
2021/01/20 05:20:33;;;;;;;0.20;0.10;;;;;;;1.75;100.00;99443.81;5066159;28;21001;-49
2021/01/20 05:23:05;;;;;;;0.20;0.10;;;;;;;1.67;100.00;99451.75;5061975;28;20478;-50
2021/01/20 05:25:32;;;;;;;0.20;0.10;;;;;;;1.68;100.00;99440.38;5059708;28;20512;-50
2021/01/20 05:28:15;;;;;;;0.20;0.10;;;;;;;1.66;100.00;99439.53;5063294;28;20447;-49
2021/01/20 05:30:45;;;;;;;0.20;0.10;;;;;;;1.79;100.00;99445.56;5065320;28;20512;-50
2021/01/20 05:33:14;;;;;;;0.20;0.10;;;;;;;1.89;100.00;99446.34;5066441;28;20446;-49
2021/01/20 05:35:42;;;;;;;0.20;0.10;;;;;;;1.96;100.00;99443.69;5058857;28;20446;-50
2021/01/20 05:38:08;;;;;;;0.20;0.10;;;;;;;2.18;100.00;99443.47;5066319;28;20450;-50
2021/01/20 05:40:35;;;;;;;0.20;0.10;;;;;;;2.12;100.00;99451.41;5061093;28;20465;-50
2021/01/20 05:43:01;;;;;;;0.20;0.10;;;;;;;2.11;100.00;99450.53;5057898;28;20486;-50
2021/01/20 05:45:28;;;;;;;2.07;1.90;;;;;;;2.16;100.00;99446.13;5060300;28;20955;-50
2021/01/20 05:48:04;;;;;;;0.20;0.10;;;;;;;2.22;100.00;99445.22;5059323;28;20501;-50
2021/01/20 05:50:31;;;;;;;0.20;0.10;;;;;;;2.08;100.00;99440.97;5063435;28;20554;-50
2021/01/20 05:53:06;;;;;;;0.20;0.10;;;;;;;2.06;100.00;99431.38;5056269;28;20455;-50
2021/01/20 05:55:32;;;;;;;0.20;0.10;;;;;;;2.32;100.00;99429.38;5061096;28;20446;-51
2021/01/20 05:57:58;;;;;;;0.20;0.10;;;;;;;2.36;100.00;99428.47;5065869;28;20451;-50
2021/01/20 06:00:25;;;;;;;0.20;0.10;;;;;;;2.52;100.00;99421.31;5052580;28;20466;-49
2021/01/20 06:02:56;;;;;;;0.20;0.10;;;;;;;2.68;98.73;99417.66;5065491;28;20491;-50
2021/01/20 06:05:24;;;;;;;0.20;0.10;;;;;;;2.81;97.82;99421.00;5064124;28;20442;-50
2021/01/20 06:07:52;;;;;;;1.80;1.70;;;;;;;2.91;97.74;99414.78;5058846;28;20957;-50
2021/01/20 06:10:20;;;;;;;0.20;0.10;;;;;;;3.06;96.26;99411.09;5060559;28;20478;-50
2021/01/20 06:12:48;;;;;;;0.20;0.10;;;;;;;3.27;94.82;99405.53;5065888;28;20443;-50
2021/01/20 06:15:14;;;;;;;0.20;0.10;;;;;;;3.24;94.66;99404.72;5063896;28;20446;-50
2021/01/20 06:17:42;;;;;;;0.20;0.10;;;;;;;3.41;94.10;99404.47;5058445;28;20445;-50
2021/01/20 06:20:10;;;;;;;0.20;0.10;;;;;;;3.52;93.21;99407.84;5059837;28;20554;-50
2021/01/20 06:22:45;;;;;;;0.20;0.10;;;;;;;3.58;92.73;99406.91;5065397;28;20860;-50
2021/01/20 06:25:15;;;;;;;0.20;0.10;;;;;;;3.59;92.72;99408.63;5058551;28;20446;-50
2021/01/20 06:27:55;;;;;;;0.20;0.10;;;;;;;3.61;91.91;99402.44;5064641;28;20458;-50
2021/01/20 06:30:47;;;;;;;0.30;0.10;;;;;;;3.71;92.17;99398.81;5064561;28;20533;-50
2021/01/20 06:33:15;;;;;;;0.20;0.10;;;;;;;3.73;91.95;99404.03;5058650;28;20446;-50
2021/01/20 06:35:50;;;;;;;0.20;0.10;;;;;;;3.75;91.75;99402.25;5058221;28;20951;-48
2021/01/20 06:38:28;;;;;;;0.20;0.10;;;;;;;3.72;91.98;99405.78;5064965;28;20445;-48
2021/01/20 06:40:55;;;;;;;0.20;0.20;;;;;;;3.64;92.07;99402.41;5062352;28;21069;-49
2021/01/20 06:44:06;;;;;;;0.20;0.10;;;;;;;3.68;91.88;99395.34;5058355;28;20515;-49
2021/01/20 06:46:32;;;;;;;0.20;0.10;;;;;;;3.70;92.33;99411.94;5023058;28;20885;-49
2021/01/20 06:48:59;;;;;;;0.20;0.10;;;;;;;3.54;94.40;99406.03;5000233;28;20448;-50
2021/01/20 06:51:27;;;;;;;0.20;0.10;;;;;;;3.77;91.65;99392.56;5044659;28;20988;-49
2021/01/20 06:54:10;;;;;;;0.20;0.10;;;;;;;3.83;90.69;99395.97;5062569;28;20450;-49
2021/01/20 06:56:38;;;;;;;0.20;0.10;;;;;;;3.88;90.72;99400.28;5058383;28;20457;-49
2021/01/20 06:59:25;;;;;;;0.20;0.10;;;;;;;3.83;91.30;99401.22;5059687;28;20496;-49
2021/01/20 07:02:03;;;;;;;0.20;0.10;;;;;;;3.85;91.22;99399.47;5048726;28;21010;-49
2021/01/20 07:04:38;;;;;;;0.20;0.10;;;;;;;3.89;90.93;99399.41;5058324;28;20454;-49
2021/01/20 07:07:10;;;;;;;0.20;0.10;;;;;;;3.86;91.30;99398.56;5060638;28;20500;-49
2021/01/20 07:10:02;;;;;;;0.20;0.10;;;;;;;3.92;90.41;99391.47;5065142;28;20508;-49
2021/01/20 07:12:29;;;;;;;0.20;0.10;;;;;;;3.91;90.99;99382.72;5062491;28;20450;-49
2021/01/20 07:14:56;;;;;;;0.20;0.20;;;;;;;4.03;90.29;99393.03;5060908;28;20466;-49
2021/01/20 07:17:23;;;;;;;0.20;0.20;;;;;;;3.88;91.61;99393.28;5058034;28;20442;-49
2021/01/20 07:19:51;;;;;;;0.20;0.10;;;;;;;3.80;92.41;99400.41;5062064;28;20517;-49
2021/01/20 07:22:17;;;;;;;0.20;0.10;;;;;;;3.85;91.58;99393.34;5061239;28;20496;-49
2021/01/20 07:24:44;;;;;;;0.20;0.10;;;;;;;3.75;92.34;99397.00;5062252;28;20446;-54
2021/01/20 07:27:12;;;;;;;0.20;0.10;;;;;;;3.78;92.14;99405.69;5066157;28;20450;-53
2021/01/20 07:29:42;;;;;;;0.20;0.10;;;;;;;3.88;92.11;99393.28;5064845;28;20528;-54
2021/01/20 07:32:08;;;;;;;0.20;0.10;;;;;;;3.79;92.29;99386.41;5061808;28;20495;-54
2021/01/20 07:34:40;;;;;;;0.20;0.10;;;;;;;3.79;92.67;99386.41;5063217;28;20455;-54
2021/01/20 07:37:13;;;;;;;0.20;0.10;;;;;;;3.79;92.24;99388.16;5067450;28;20457;-54
2021/01/20 07:39:40;;;;;;;0.40;0.40;;;;;;;3.86;92.70;99377.53;5061841;28;20500;-53
2021/01/20 07:42:07;;;;;;;0.20;0.13;;;;;;;3.99;92.20;99385.22;5048286;28;20469;-54
2021/01/20 07:44:44;;;;;;;0.20;0.10;;;;;;;4.03;92.43;99386.91;5061295;28;20821;-54
2021/01/20 07:47:11;;;;;;;0.20;0.10;;;;;;;4.05;92.26;99378.09;5065237;28;20500;-53
2021/01/20 07:49:38;;;;;;;0.20;0.10;;;;;;;4.13;91.97;99384.09;5068121;28;20973;-55
2021/01/20 07:52:07;;;;;;;0.20;0.10;;;;;;;4.15;92.07;99387.56;5055930;28;20901;-54
2021/01/20 07:54:37;;;;;;;0.30;0.20;;;;;;;4.21;92.05;99381.31;5067976;28;20458;-55
2021/01/20 07:57:05;;;;;;;0.20;0.10;;;;;;;4.20;92.83;99378.72;5064766;28;20446;-54
2021/01/20 07:59:32;;;;;;;0.20;0.10;;;;;;;4.22;92.58;99382.19;5060113;28;20523;-55
2021/01/20 08:02:09;;;;;;;1.20;1.20;;;;;;;4.18;93.16;99368.22;5064640;28;20467;-55
2021/01/20 08:04:36;;;;;;;0.20;0.10;;;;;;;4.22;92.75;99372.53;5068222;28;20499;-54
2021/01/20 08:07:03;;;;;;;0.20;0.10;;;;;;;4.28;92.77;99380.31;5066463;28;20504;-54
2021/01/20 08:09:40;;;;;;;0.20;0.10;;;;;;;4.20;92.91;99376.94;5061025;28;20503;-55
2021/01/20 08:12:14;;;;;;;0.30;0.20;;;;;;;4.39;92.77;99369.63;5061193;28;20470;-55
2021/01/20 08:14:43;;;;;;;0.20;0.10;;;;;;;4.39;93.11;99380.13;5049885;28;20457;-54
2021/01/20 08:17:12;;;;;;;0.20;0.10;;;;;;;4.50;92.49;99374.66;5060828;28;20442;-54
2021/01/20 08:19:40;;;;;;;0.20;0.13;;;;;;;4.40;93.74;99376.59;5065783;28;20489;-50
2021/01/20 08:22:12;;;;;;;0.20;0.10;;;;;;;4.33;94.14;99370.56;5063214;28;20871;-51
2021/01/20 08:24:49;;;;;;;0.20;0.10;;;;;;;4.43;93.40;99377.41;5064640;28;20446;-50
2021/01/20 08:27:24;;;;;;;0.20;0.20;;;;;;;4.50;93.35;99379.91;5067411;28;20817;-50
2021/01/20 08:29:52;;;;;;;0.20;0.10;;;;;;;4.51;93.45;99379.88;5065959;28;20927;-49
2021/01/20 08:32:19;;;;;;;0.20;0.10;;;;;;;4.52;93.95;99375.47;5060609;28;20827;-50
2021/01/20 08:34:47;;;;;;;0.20;0.10;;;;;;;4.61;93.25;99370.06;5061050;28;20447;-52
2021/01/20 08:37:20;;;;;;;0.20;0.10;;;;;;;4.66;92.79;99369.09;5055452;28;20453;-50
2021/01/20 08:40:01;;;;;;;0.20;0.10;;;;;;;4.80;92.33;99360.03;5059952;28;20493;-51
2021/01/20 08:42:36;;;;;;;1.03;1.03;;;;;;;4.72;93.22;99373.34;5063565;28;20482;-49
2021/01/20 08:45:08;;;;;;;0.20;0.10;;;;;;;4.78;93.17;99367.09;5067136;28;20447;-50
2021/01/20 08:47:59;;;;;;;0.20;0.10;;;;;;;4.74;92.96;99367.16;5066053;28;20453;-50
2021/01/20 08:50:34;;;;;;;0.20;0.10;;;;;;;4.87;92.94;99353.75;5059342;28;20479;-50
2021/01/20 08:53:12;;;;;;;0.77;0.77;;;;;;;4.85;93.27;99358.19;5057948;28;20446;-50
2021/01/20 08:55:39;;;;;;;2.07;2.00;;;;;;;4.86;94.24;99360.78;5061967;28;20443;-50
2021/01/20 08:58:31;;;;;;;0.20;0.20;;;;;;;4.87;93.51;99357.25;5067341;28;20464;-50
2021/01/20 09:01:06;;;;;;;0.20;0.13;;;;;;;4.95;93.58;99351.84;5066713;28;20473;-49
2021/01/20 09:03:35;;;;;;;0.20;0.17;;;;;;;5.10;92.80;99359.41;5063511;28;20481;-50
2021/01/20 09:06:17;;;;;;;0.23;0.10;;;;;;;5.06;92.74;99339.28;5059674;28;20450;-50
2021/01/20 09:08:44;;;;;;;0.20;0.20;;;;;;;5.11;93.84;99344.47;5061144;28;20447;-50
2021/01/20 09:11:10;;;;;;;0.30;0.23;;;;;;;5.17;93.08;99344.31;5066970;28;20475;-50
2021/01/20 09:13:36;;;;;;;0.20;0.20;;;;;;;5.15;92.71;99340.84;5066066;28;20450;-50
2021/01/20 09:16:03;;;;;;;0.20;0.10;;;;;;;4.83;95.37;99344.19;5059856;28;20457;-49
2021/01/20 09:18:29;;;;;;;0.20;0.10;;;;;;;4.54;97.29;99347.41;5060981;28;20447;-50
2021/01/20 09:20:56;;;;;;;0.20;0.10;;;;;;;4.44;97.46;99337.06;5065843;28;20536;-49
2021/01/20 09:23:23;;;;;;;0.20;0.10;;;;;;;4.41;97.41;99339.75;5065437;28;20481;-50
2021/01/20 09:25:49;;;;;;;0.30;0.10;;;;;;;4.34;97.54;99334.63;5059773;28;20450;-50
2021/01/20 09:28:15;;;;;;;0.53;0.53;;;;;;;4.16;98.93;99335.84;5060427;28;20447;-50
2021/01/20 09:30:42;;;;;;;0.20;0.10;;;;;;;4.14;98.62;99345.50;5066495;28;20516;-51
2021/01/20 09:33:08;;;;;;;0.30;0.20;;;;;;;4.34;98.09;99340.75;5066342;28;20442;-49
2021/01/20 09:35:35;;;;;;;0.20;0.20;;;;;;;4.28;98.00;99342.63;5059099;28;20458;-50
2021/01/20 09:38:02;;;;;;;0.20;0.10;;;;;;;4.16;98.73;99343.72;5066156;28;20461;-51
2021/01/20 09:40:29;;;;;;;0.20;0.10;;;;;;;4.23;99.06;99339.19;5059929;28;20476;-50
2021/01/20 09:42:55;;;;;;;0.20;0.10;;;;;;;4.13;99.37;99342.03;5059344;28;20941;-51
2021/01/20 09:45:27;;;;;;;0.20;0.10;;;;;;;4.20;99.56;99337.50;5066024;28;20516;-50
2021/01/20 09:47:58;;;;;;;0.20;0.20;;;;;;;4.04;99.24;99341.31;5065439;28;20450;-50
2021/01/20 09:50:25;;;;;;;0.30;0.20;;;;;;;4.27;98.38;99333.00;5060593;28;20814;-50
2021/01/20 09:52:55;;;;;;;0.20;0.20;;;;;;;3.97;99.10;99334.41;5055902;28;20465;-49
2021/01/20 09:55:21;;;;;;;0.83;0.80;;;;;;;4.01;99.89;99333.47;5052596;28;20461;-50
2021/01/20 09:57:48;;;;;;;0.20;0.10;;;;;;;3.97;99.42;99334.41;5052400;28;20455;-50
2021/01/20 10:00:14;;;;;;;0.20;0.10;;;;;;;3.92;100.00;99325.75;5052441;28;20481;-50
2021/01/20 10:02:41;;;;;;;0.20;0.13;;;;;;;3.79;100.00;99325.06;5052494;28;20513;-49
2021/01/20 10:05:09;;;;;;;0.30;0.20;;;;;;;3.81;100.00;99323.28;5052481;28;20451;-49
2021/01/20 10:07:37;;;;;;;0.20;0.10;;;;;;;3.71;100.00;99300.72;5052392;28;20512;-49
2021/01/20 10:10:07;;;;;;;0.20;0.13;;;;;;;3.71;100.00;99301.56;5052636;28;20471;-50
2021/01/20 10:12:35;;;;;;;0.20;0.10;;;;;;;3.85;100.00;99309.22;5052455;28;20493;-50
2021/01/20 10:15:02;;;;;;;0.20;0.10;;;;;;;4.27;100.00;99302.31;5052564;28;20462;-50
2021/01/20 10:17:28;;;;;;;1.03;1.03;;;;;;;4.04;100.00;99299.25;5052301;28;20524;-49
2021/01/20 10:19:54;;;;;;;0.20;0.10;;;;;;;4.29;100.00;99294.38;5052121;28;20450;-50
2021/01/20 10:22:20;;;;;;;0.20;0.10;;;;;;;4.20;100.00;99295.41;5051980;28;20458;-49
2021/01/20 10:24:46;;;;;;;0.20;0.10;;;;;;;4.39;100.00;99293.31;5052339;28;20458;-50
2021/01/20 10:27:12;;;;;;;0.20;0.10;;;;;;;4.21;100.00;99286.63;5051979;28;20450;-52
2021/01/20 10:29:39;;;;;;;0.20;0.10;;;;;;;4.20;100.00;99279.66;5051982;28;20443;-50
2021/01/20 10:32:05;;;;;;;2.87;2.57;;;;;;;4.17;100.00;99277.06;5051960;28;20972;-50
2021/01/20 10:34:31;;;;;;;0.20;0.10;;;;;;;4.39;99.96;99274.91;5052205;28;20446;-49
2021/01/20 10:36:58;;;;;;;2.10;2.10;;;;;;;4.29;100.00;99262.81;5051964;28;20458;-51
2021/01/20 10:39:24;;;;;;;0.20;0.10;;;;;;;4.25;100.00;99258.50;5052090;28;20446;-50
2021/01/20 10:41:52;;;;;;;0.20;0.10;;;;;;;4.24;100.00;99248.88;5051524;28;20889;-50
2021/01/20 10:44:18;;;;;;;0.20;0.20;;;;;;;4.47;100.00;99246.66;5050912;28;20487;-50
2021/01/20 10:46:44;;;;;;;0.30;0.20;;;;;;;4.39;100.00;99236.31;5052195;28;20504;-50
2021/01/20 10:49:11;;;;;;;0.20;0.10;;;;;;;4.41;100.00;99221.34;5052005;28;20542;-49
2021/01/20 10:51:37;;;;;;;0.20;0.10;;;;;;;4.52;100.00;99218.47;5052092;28;20470;-49
2021/01/20 10:54:04;;;;;;;0.20;0.10;;;;;;;4.67;100.00;99218.16;5052106;28;20478;-50
2021/01/20 10:56:31;;;;;;;0.20;0.10;;;;;;;4.61;100.00;99193.75;5051823;28;20500;-50
2021/01/20 10:58:57;;;;;;;0.20;0.10;;;;;;;4.65;100.00;99192.75;5051999;28;20454;-50
2021/01/20 11:01:23;;;;;;;0.20;0.10;;;;;;;4.68;100.00;99201.47;5052004;28;20525;-49
2021/01/20 11:03:50;;;;;;;0.20;0.20;;;;;;;4.60;100.00;99205.16;5055747;28;20482;-50
2021/01/20 11:06:16;;;;;;;0.20;0.20;;;;;;;4.70;100.00;99202.31;5055741;28;20980;-52
2021/01/20 11:08:42;;;;;;;0.20;0.10;;;;;;;4.64;100.00;99199.78;5054783;28;20463;-50
2021/01/20 11:11:10;;;;;;;0.20;0.10;;;;;;;4.76;99.98;99199.53;5055563;28;20478;-50
2021/01/20 11:13:36;;;;;;;0.20;0.13;;;;;;;4.89;100.00;99192.22;5055610;28;20504;-50
2021/01/20 11:16:03;;;;;;;0.20;0.10;;;;;;;4.71;100.00;99185.59;5055489;28;20509;-50
2021/01/20 11:18:32;;;;;;;0.20;0.10;;;;;;;4.57;100.00;99184.19;5055896;28;20454;-49
2021/01/20 11:21:00;;;;;;;0.20;0.10;;;;;;;4.59;100.00;99164.81;5055139;28;20478;-49
2021/01/20 11:23:45;;;;;;;1.57;1.33;;;;;;;4.62;100.00;99163.88;5055024;28;20891;-51
2021/01/20 11:26:12;;;;;;;0.20;0.10;;;;;;;4.39;100.00;99167.06;5044962;28;20478;-50
2021/01/20 11:28:38;;;;;;;0.20;0.10;;;;;;;4.56;100.00;99159.66;5055450;28;20446;-50
2021/01/20 11:31:04;;;;;;;0.20;0.10;;;;;;;4.59;100.00;99159.56;5055723;28;20458;-49
2021/01/20 11:33:38;;;;;;;0.20;0.10;;;;;;;4.79;100.00;99151.19;5055339;28;20434;-49
2021/01/20 11:36:07;;;;;;;0.20;0.10;;;;;;;4.77;100.00;99147.75;5055278;28;20562;-50
2021/01/20 11:38:35;;;;;;;0.20;0.10;;;;;;;4.94;100.00;99142.09;5055346;28;20481;-50
2021/01/20 11:41:01;;;;;;;3.27;2.57;;;;;;;4.99;100.00;99146.34;5055275;28;20528;-50
2021/01/20 11:43:27;;;;;;;0.20;0.10;;;;;;;4.93;100.00;99141.19;5054920;28;20486;-50